createdAt,value
2019-06-26T00:00:07.744Z,0.00
2019-06-26T00:01:07.728Z,0.00
2019-06-26T00:02:07.715Z,0.00
2019-06-26T00:03:07.733Z,0.00
2019-06-26T00:04:07.698Z,0.00
2019-06-26T00:05:07.703Z,0.00
2019-06-26T00:06:07.679Z,0.00
2019-06-26T00:07:07.663Z,0.00
2019-06-26T00:08:07.651Z,0.00
2019-06-26T00:09:07.639Z,0.00
2019-06-26T00:10:07.635Z,0.00
2019-06-26T00:11:07.639Z,0.00
2019-06-26T00:12:07.611Z,0.00
2019-06-26T00:13:07.602Z,0.00
2019-06-26T00:14:07.583Z,0.00
2019-06-26T00:15:07.578Z,0.00
2019-06-26T00:16:07.563Z,0.00
2019-06-26T00:17:07.562Z,0.00
2019-06-26T00:18:07.665Z,0.00
2019-06-26T00:19:07.538Z,0.00
2019-06-26T00:20:07.522Z,0.00
2019-06-26T00:21:07.510Z,0.00
2019-06-26T00:22:07.518Z,0.00
2019-06-26T00:23:07.503Z,0.00
2019-06-26T00:24:07.478Z,0.00
2019-06-26T00:25:07.492Z,0.00
2019-06-26T00:28:55.682Z,0.00
2019-06-26T00:29:26.874Z,0.00
2019-06-26T00:30:26.866Z,0.00
2019-06-26T00:31:26.851Z,0.00
2019-06-26T00:32:26.838Z,0.00
2019-06-26T00:33:33.888Z,0.00
2019-06-26T00:34:26.830Z,0.00
2019-06-26T00:35:26.798Z,0.00
2019-06-26T00:36:26.790Z,0.00
2019-06-26T00:37:26.782Z,0.00
2019-06-26T00:38:26.784Z,0.00
2019-06-26T00:39:26.755Z,0.00
2019-06-26T00:40:26.782Z,0.00
2019-06-26T00:41:26.735Z,0.00
2019-06-26T00:42:26.730Z,0.00
2019-06-26T00:43:41.537Z,0.00
2019-06-26T00:44:27.742Z,0.00
2019-06-26T00:45:26.692Z,0.00
2019-06-26T00:46:26.698Z,0.00
2019-06-26T00:47:26.670Z,0.00
2019-06-26T00:48:26.682Z,0.00
2019-06-26T00:49:26.655Z,0.00
2019-06-26T00:50:26.654Z,0.00
2019-06-26T00:51:26.654Z,0.00
2019-06-26T00:52:26.626Z,0.00
2019-06-26T00:53:26.606Z,0.00
2019-06-26T00:54:26.590Z,0.00
2019-06-26T00:55:26.578Z,0.00
2019-06-26T00:56:26.594Z,0.00
2019-06-26T00:57:26.558Z,0.00
2019-06-26T00:58:26.555Z,0.00
2019-06-26T00:59:26.536Z,0.00
2019-06-26T01:00:26.527Z,0.00
2019-06-26T01:01:26.515Z,0.00
2019-06-26T01:02:26.518Z,0.00
2019-06-26T01:03:26.490Z,0.00
2019-06-26T01:04:26.481Z,0.00
2019-06-26T01:05:26.470Z,0.00
2019-06-26T01:06:26.458Z,0.00
2019-06-26T01:07:26.453Z,0.00
2019-06-26T01:08:26.456Z,0.00
2019-06-26T01:09:26.427Z,0.00
2019-06-26T01:10:26.422Z,0.00
2019-06-26T01:11:26.409Z,0.00
2019-06-26T01:12:26.390Z,0.00
2019-06-26T01:13:26.385Z,0.00
2019-06-26T01:14:26.466Z,0.00
2019-06-26T01:15:26.382Z,0.00
2019-06-26T01:16:26.362Z,0.00
2019-06-26T01:17:26.336Z,0.00
2019-06-26T01:18:26.350Z,0.00
2019-06-26T01:19:26.323Z,0.00
2019-06-26T01:20:26.315Z,0.00
2019-06-26T01:21:26.294Z,0.00
2019-06-26T01:22:26.300Z,0.00
2019-06-26T01:23:26.282Z,0.00
2019-06-26T01:24:26.258Z,0.00
2019-06-26T01:25:26.250Z,0.00
2019-06-26T01:26:26.237Z,0.00
2019-06-26T01:27:26.230Z,0.00
2019-06-26T01:28:26.250Z,0.00
2019-06-26T01:29:26.206Z,0.00
2019-06-26T01:30:26.206Z,0.00
2019-06-26T01:31:26.202Z,0.00
2019-06-26T01:32:26.170Z,0.00
2019-06-26T01:33:26.158Z,0.00
2019-06-26T01:34:26.170Z,0.00
2019-06-26T01:35:26.152Z,0.00
2019-06-26T01:36:26.122Z,0.00
2019-06-26T01:37:26.123Z,0.00
2019-06-26T01:38:26.102Z,0.00
2019-06-26T01:39:26.138Z,0.00
2019-06-26T01:40:26.078Z,0.00
2019-06-26T01:41:26.096Z,0.00
2019-06-26T01:42:26.062Z,0.00
2019-06-26T01:43:26.046Z,0.00
2019-06-26T01:44:26.038Z,0.00
2019-06-26T01:45:26.042Z,0.00
2019-06-26T01:46:26.015Z,0.00
2019-06-26T01:47:26.002Z,0.00
2019-06-26T01:48:25.991Z,0.00
2019-06-26T01:49:25.986Z,0.00
2019-06-26T01:50:25.973Z,0.00
2019-06-26T01:51:26.226Z,0.00
2019-06-26T01:52:25.961Z,0.00
2019-06-26T01:53:25.976Z,0.00
2019-06-26T01:54:25.927Z,0.00
2019-06-26T01:55:25.914Z,0.00
2019-06-26T01:56:25.912Z,0.00
2019-06-26T01:57:25.922Z,0.00
2019-06-26T01:58:25.899Z,0.00
2019-06-26T01:59:25.871Z,0.00
2019-06-26T02:00:25.862Z,0.00
2019-06-26T02:01:25.854Z,0.00
2019-06-26T02:02:25.839Z,0.00
2019-06-26T02:03:25.858Z,0.00
2019-06-26T02:04:25.819Z,0.00
2019-06-26T02:05:25.802Z,0.00
2019-06-26T02:06:25.833Z,0.00
2019-06-26T02:07:25.829Z,0.00
2019-06-26T02:08:25.771Z,0.00
2019-06-26T02:09:25.798Z,0.00
2019-06-26T02:10:25.749Z,0.00
2019-06-26T02:11:25.738Z,0.00
2019-06-26T02:12:25.730Z,0.00
2019-06-26T02:13:25.714Z,0.00
2019-06-26T02:14:31.086Z,0.00
2019-06-26T02:15:26.703Z,0.00
2019-06-26T02:16:25.679Z,0.00
2019-06-26T02:17:25.666Z,0.00
2019-06-26T02:18:25.673Z,0.00
2019-06-26T02:19:25.661Z,0.00
2019-06-26T02:20:25.683Z,0.00
2019-06-26T02:21:25.626Z,0.00
2019-06-26T02:22:25.615Z,0.00
2019-06-26T02:23:25.614Z,0.00
2019-06-26T02:24:25.593Z,0.00
2019-06-26T02:25:25.594Z,0.00
2019-06-26T02:26:25.635Z,0.00
2019-06-26T02:27:25.570Z,0.00
2019-06-26T02:28:25.565Z,0.00
2019-06-26T02:29:25.534Z,0.00
2019-06-26T02:30:25.539Z,0.00
2019-06-26T02:31:25.523Z,0.00
2019-06-26T02:32:25.519Z,0.00
2019-06-26T02:33:25.498Z,0.00
2019-06-26T02:34:25.498Z,4.00
2019-06-26T02:35:25.479Z,4.00
2019-06-26T02:36:25.466Z,4.00
2019-06-26T02:37:25.447Z,0.00
2019-06-26T02:38:25.436Z,4.00
2019-06-26T02:39:25.449Z,4.00
2019-06-26T02:40:25.422Z,4.00
2019-06-26T02:41:25.419Z,4.00
2019-06-26T02:42:25.386Z,4.00
2019-06-26T02:43:25.397Z,8.00
2019-06-26T02:44:25.371Z,4.00
2019-06-26T02:45:25.388Z,8.00
2019-06-26T02:46:25.343Z,4.00
2019-06-26T02:47:25.338Z,8.00
2019-06-26T02:48:25.333Z,8.00
2019-06-26T02:49:25.343Z,8.00
2019-06-26T02:50:25.307Z,8.00
2019-06-26T02:51:25.302Z,8.00
2019-06-26T02:52:25.377Z,16.00
2019-06-26T02:53:25.297Z,12.00
2019-06-26T02:54:25.345Z,16.00
2019-06-26T02:55:25.246Z,16.00
2019-06-26T02:56:25.237Z,20.00
2019-06-26T02:57:25.220Z,20.00
2019-06-26T02:58:25.234Z,20.00
2019-06-26T02:59:25.207Z,24.00
2019-06-26T03:00:25.187Z,28.00
2019-06-26T03:01:25.177Z,28.00
2019-06-26T03:02:25.174Z,32.00
2019-06-26T03:03:25.160Z,32.00
2019-06-26T03:04:25.194Z,40.00
2019-06-26T03:05:25.130Z,40.00
2019-06-26T03:06:25.122Z,44.00
2019-06-26T03:07:25.108Z,48.00
2019-06-26T03:08:25.104Z,52.00
2019-06-26T03:09:25.090Z,56.00
2019-06-26T03:10:25.086Z,60.00
2019-06-26T03:11:25.094Z,64.00
2019-06-26T03:12:25.052Z,68.00
2019-06-26T03:13:25.045Z,68.00
2019-06-26T03:14:25.029Z,76.00
2019-06-26T03:15:25.036Z,80.00
2019-06-26T03:16:25.009Z,84.00
2019-06-26T03:17:25.031Z,88.00
2019-06-26T03:18:24.994Z,96.00
2019-06-26T03:19:24.977Z,100.00
2019-06-26T03:20:24.961Z,104.00
2019-06-26T03:21:24.950Z,112.00
2019-06-26T03:22:24.946Z,116.00
2019-06-26T03:23:25.038Z,124.00
2019-06-26T03:24:24.946Z,128.00
2019-06-26T03:25:24.906Z,136.00
2019-06-26T03:26:24.906Z,144.00
2019-06-26T03:27:24.886Z,148.00
2019-06-26T03:28:24.922Z,156.00
2019-06-26T03:29:24.878Z,164.00
2019-06-26T03:30:24.862Z,172.00
2019-06-26T03:31:24.847Z,176.00
2019-06-26T03:32:24.831Z,184.00
2019-06-26T03:33:24.818Z,196.00
2019-06-26T03:34:24.830Z,204.00
2019-06-26T03:35:24.918Z,212.00
2019-06-26T03:36:24.785Z,216.00
2019-06-26T03:37:24.774Z,224.00
2019-06-26T03:38:24.765Z,232.00
2019-06-26T03:39:24.750Z,240.00
2019-06-26T03:40:24.811Z,252.00
2019-06-26T03:41:24.753Z,256.00
2019-06-26T03:42:24.719Z,264.00
2019-06-26T03:43:24.712Z,272.00
2019-06-26T03:44:24.693Z,280.00
2019-06-26T03:45:26.393Z,292.00
2019-06-26T03:46:24.675Z,300.00
2019-06-26T03:47:24.673Z,308.00
2019-06-26T03:48:24.664Z,320.00
2019-06-26T03:49:24.766Z,324.00
2019-06-26T03:50:24.650Z,336.00
2019-06-26T03:51:24.624Z,344.00
2019-06-26T03:52:24.610Z,356.00
2019-06-26T03:53:24.595Z,364.00
2019-06-26T03:54:24.582Z,372.00
2019-06-26T03:55:24.654Z,380.00
2019-06-26T03:56:24.558Z,392.00
2019-06-26T03:57:24.550Z,400.00
2019-06-26T03:58:24.538Z,408.00
2019-06-26T03:59:24.574Z,420.00
2019-06-26T04:00:24.574Z,428.00
2019-06-26T04:01:24.538Z,436.00
2019-06-26T04:02:24.493Z,448.00
2019-06-26T04:03:24.489Z,456.00
2019-06-26T04:04:24.470Z,464.00
2019-06-26T04:05:24.525Z,480.00
2019-06-26T04:06:24.445Z,484.00
2019-06-26T04:07:24.473Z,496.00
2019-06-26T04:08:24.486Z,508.00
2019-06-26T04:09:24.422Z,516.00
2019-06-26T04:10:24.405Z,508.00
2019-06-26T04:11:24.415Z,532.00
2019-06-26T04:12:24.391Z,544.00
2019-06-26T04:13:24.386Z,548.00
2019-06-26T04:14:24.357Z,560.00
2019-06-26T04:15:32.142Z,572.00
2019-06-26T04:16:25.339Z,576.00
2019-06-26T04:17:24.326Z,584.00
2019-06-26T04:18:24.329Z,600.00
2019-06-26T04:19:24.341Z,604.00
2019-06-26T04:20:24.302Z,612.00
2019-06-26T04:21:24.278Z,620.00
2019-06-26T04:22:24.270Z,632.00
2019-06-26T04:23:24.258Z,636.00
2019-06-26T04:24:24.266Z,644.00
2019-06-26T04:25:24.234Z,652.00
2019-06-26T04:26:24.234Z,664.00
2019-06-26T04:27:24.258Z,668.00
2019-06-26T04:28:24.203Z,680.00
2019-06-26T04:29:24.210Z,684.00
2019-06-26T04:30:24.178Z,696.00
2019-06-26T04:31:24.199Z,700.00
2019-06-26T04:32:24.154Z,708.00
2019-06-26T04:33:24.192Z,720.00
2019-06-26T04:34:24.134Z,724.00
2019-06-26T04:35:24.127Z,736.00
2019-06-26T04:36:24.118Z,744.00
2019-06-26T04:37:24.106Z,748.00
2019-06-26T04:38:24.090Z,760.00
2019-06-26T04:39:24.114Z,772.00
2019-06-26T04:40:24.066Z,780.00
2019-06-26T04:41:24.054Z,784.00
2019-06-26T04:42:24.042Z,804.00
2019-06-26T04:43:24.039Z,804.00
2019-06-26T04:44:24.038Z,808.00
2019-06-26T04:45:24.018Z,820.00
2019-06-26T04:46:24.019Z,824.00
2019-06-26T04:47:23.998Z,832.00
2019-06-26T04:48:23.973Z,844.00
2019-06-26T04:49:23.987Z,848.00
2019-06-26T04:50:23.958Z,856.00
2019-06-26T04:51:23.945Z,856.00
2019-06-26T04:52:23.958Z,868.00
2019-06-26T04:53:23.922Z,876.00
2019-06-26T04:54:23.918Z,872.00
2019-06-26T04:55:23.905Z,888.00
2019-06-26T04:56:23.886Z,872.00
2019-06-26T04:57:23.873Z,876.00
2019-06-26T04:58:23.878Z,884.00
2019-06-26T04:59:23.871Z,884.00
2019-06-26T05:00:23.843Z,908.00
2019-06-26T05:01:23.831Z,928.00
2019-06-26T05:02:23.833Z,932.00
2019-06-26T05:03:23.811Z,940.00
2019-06-26T05:04:23.798Z,944.00
2019-06-26T05:05:38.515Z,948.00
2019-06-26T05:06:24.775Z,940.00
2019-06-26T05:07:23.762Z,944.00
2019-06-26T05:08:23.754Z,972.00
2019-06-26T05:09:23.744Z,976.00
2019-06-26T05:10:23.738Z,988.00
2019-06-26T05:11:23.738Z,1020.00
2019-06-26T05:12:23.706Z,1004.00
2019-06-26T05:13:23.699Z,1008.00
2019-06-26T05:14:23.686Z,1008.00
2019-06-26T05:15:23.674Z,1036.00
2019-06-26T05:16:23.663Z,1032.00
2019-06-26T05:17:23.683Z,1044.00
2019-06-26T05:18:23.642Z,1044.00
2019-06-26T05:19:23.634Z,1060.00
2019-06-26T05:20:23.618Z,1044.00
2019-06-26T05:21:23.614Z,1064.00
2019-06-26T05:22:23.594Z,1036.00
2019-06-26T05:23:23.610Z,1044.00
2019-06-26T05:24:23.574Z,1100.00
2019-06-26T05:25:23.562Z,1068.00
2019-06-26T05:26:23.566Z,1064.00
2019-06-26T05:27:23.538Z,1100.00
2019-06-26T05:28:23.526Z,1044.00
2019-06-26T05:29:23.527Z,1088.00
2019-06-26T05:30:23.525Z,1120.00
2019-06-26T05:31:23.506Z,1108.00
2019-06-26T05:32:23.503Z,1048.00
2019-06-26T05:33:23.486Z,1120.00
2019-06-26T05:34:23.500Z,1112.00
2019-06-26T05:35:23.454Z,1140.00
2019-06-26T05:36:23.441Z,1192.00
2019-06-26T05:37:23.430Z,1144.00
2019-06-26T05:38:23.418Z,1152.00
2019-06-26T05:39:23.406Z,1156.00
2019-06-26T05:40:23.410Z,1204.00
2019-06-26T05:41:23.399Z,1184.00
2019-06-26T05:42:23.389Z,1184.00
2019-06-26T05:43:23.359Z,1176.00
2019-06-26T05:44:23.350Z,1188.00
2019-06-26T05:45:23.366Z,1196.00
2019-06-26T05:46:30.934Z,1224.00
2019-06-26T05:47:24.314Z,1236.00
2019-06-26T05:48:23.306Z,1228.00
2019-06-26T05:49:23.298Z,1152.00
2019-06-26T05:50:23.282Z,1260.00
2019-06-26T05:51:23.297Z,1212.00
2019-06-26T05:52:23.278Z,1200.00
2019-06-26T05:53:23.287Z,1224.00
2019-06-26T05:54:23.278Z,1188.00
2019-06-26T05:55:23.245Z,1264.00
2019-06-26T05:56:23.215Z,1240.00
2019-06-26T05:57:23.202Z,1224.00
2019-06-26T05:58:23.215Z,1292.00
2019-06-26T05:59:23.187Z,1248.00
2019-06-26T06:00:23.184Z,1232.00
2019-06-26T06:01:23.159Z,1216.00
2019-06-26T06:02:23.415Z,1240.00
2019-06-26T06:03:23.158Z,1256.00
2019-06-26T06:04:23.134Z,1276.00
2019-06-26T06:05:23.139Z,1272.00
2019-06-26T06:06:23.107Z,1264.00
2019-06-26T06:07:23.094Z,1344.00
2019-06-26T06:08:23.086Z,1372.00
2019-06-26T06:09:23.082Z,1316.00
2019-06-26T06:10:23.164Z,1312.00
2019-06-26T06:11:23.050Z,1288.00
2019-06-26T06:12:23.033Z,1272.00
2019-06-26T06:13:23.030Z,1280.00
2019-06-26T06:14:23.042Z,1316.00
2019-06-26T06:15:23.017Z,1260.00
2019-06-26T06:16:22.994Z,1264.00
2019-06-26T06:17:23.000Z,1288.00
2019-06-26T06:18:22.966Z,1300.00
2019-06-26T06:19:22.962Z,1292.00
2019-06-26T06:20:22.970Z,1296.00
2019-06-26T06:21:22.940Z,1300.00
2019-06-26T06:22:22.930Z,1296.00
2019-06-26T06:23:22.910Z,1292.00
2019-06-26T06:24:22.908Z,1292.00
2019-06-26T06:25:22.890Z,1264.00
2019-06-26T06:26:22.901Z,1288.00
2019-06-26T06:27:22.875Z,1284.00
2019-06-26T06:28:22.869Z,1228.00
2019-06-26T06:29:22.846Z,1288.00
2019-06-26T06:30:22.848Z,1328.00
2019-06-26T06:31:22.826Z,1304.00
2019-06-26T06:32:22.814Z,1316.00
2019-06-26T06:33:22.802Z,1328.00
2019-06-26T06:34:22.806Z,1332.00
2019-06-26T06:35:22.778Z,1336.00
2019-06-26T06:36:22.767Z,1392.00
2019-06-26T06:37:22.754Z,1320.00
2019-06-26T06:38:22.746Z,1368.00
2019-06-26T06:39:22.743Z,1368.00
2019-06-26T06:40:22.754Z,1316.00
2019-06-26T06:41:22.709Z,1272.00
2019-06-26T06:42:22.702Z,1308.00
2019-06-26T06:43:22.754Z,1292.00
2019-06-26T06:44:22.689Z,1320.00
2019-06-26T06:45:22.677Z,1244.00
2019-06-26T06:46:22.659Z,1332.00
2019-06-26T06:47:22.646Z,1324.00
2019-06-26T06:48:22.645Z,1324.00
2019-06-26T06:49:22.634Z,1340.00
2019-06-26T06:50:22.614Z,1316.00
2019-06-26T06:51:22.597Z,1292.00
2019-06-26T06:52:22.609Z,1328.00
2019-06-26T06:53:22.611Z,1336.00
2019-06-26T06:54:22.565Z,1356.00
2019-06-26T06:55:22.562Z,1340.00
2019-06-26T06:56:22.549Z,1376.00
2019-06-26T06:57:22.530Z,1348.00
2019-06-26T06:58:22.545Z,1356.00
2019-06-26T06:59:22.510Z,1288.00
2019-06-26T07:00:22.506Z,1360.00
2019-06-26T07:01:22.487Z,1368.00
2019-06-26T07:02:22.487Z,1400.00
2019-06-26T07:03:22.481Z,1396.00
2019-06-26T07:04:22.487Z,1344.00
2019-06-26T07:05:22.442Z,1384.00
2019-06-26T07:06:22.434Z,1388.00
2019-06-26T07:07:22.431Z,1344.00
2019-06-26T07:08:22.409Z,1340.00
2019-06-26T07:09:22.398Z,1420.00
2019-06-26T07:10:22.410Z,1384.00
2019-06-26T07:11:22.385Z,1432.00
2019-06-26T07:12:22.369Z,1420.00
2019-06-26T07:13:22.355Z,1368.00
2019-06-26T07:14:22.342Z,1380.00
2019-06-26T07:15:22.334Z,1440.00
2019-06-26T07:16:22.337Z,1440.00
2019-06-26T07:17:22.311Z,1416.00
2019-06-26T07:18:22.301Z,1428.00
2019-06-26T07:19:22.290Z,1464.00
2019-06-26T07:20:22.359Z,1440.00
2019-06-26T07:21:22.281Z,1452.00
2019-06-26T07:22:22.262Z,1456.00
2019-06-26T07:23:22.252Z,1472.00
2019-06-26T07:24:22.239Z,1476.00
2019-06-26T07:25:22.225Z,1528.00
2019-06-26T07:26:22.209Z,1496.00
2019-06-26T07:27:22.228Z,1504.00
2019-06-26T07:28:22.341Z,1464.00
2019-06-26T07:29:22.208Z,1532.00
2019-06-26T07:30:22.242Z,1460.00
2019-06-26T07:31:22.157Z,1604.00
2019-06-26T07:32:22.149Z,1524.00
2019-06-26T07:33:22.161Z,1516.00
2019-06-26T07:34:22.125Z,1524.00
2019-06-26T07:35:22.117Z,1516.00
2019-06-26T07:36:22.101Z,1536.00
2019-06-26T07:37:22.089Z,1540.00
2019-06-26T07:38:22.096Z,1608.00
2019-06-26T07:39:22.098Z,1548.00
2019-06-26T07:40:22.076Z,1672.00
2019-06-26T07:41:22.080Z,1576.00
2019-06-26T07:42:22.050Z,1568.00
2019-06-26T07:43:22.031Z,1496.00
2019-06-26T07:44:22.025Z,1556.00
2019-06-26T07:45:24.198Z,1316.00
2019-06-26T07:46:21.990Z,1596.00
2019-06-26T07:47:28.125Z,1596.00
2019-06-26T07:48:22.979Z,1436.00
2019-06-26T07:49:21.962Z,1620.00
2019-06-26T07:50:21.993Z,1516.00
2019-06-26T07:51:21.983Z,1580.00
2019-06-26T07:52:21.949Z,1636.00
2019-06-26T07:53:21.913Z,1668.00
2019-06-26T07:54:21.910Z,1664.00
2019-06-26T07:55:21.905Z,1664.00
2019-06-26T07:56:21.994Z,1696.00
2019-06-26T07:57:21.883Z,1752.00
2019-06-26T07:58:21.860Z,1728.00
2019-06-26T07:59:21.862Z,1792.00
2019-06-26T08:00:21.861Z,1788.00
2019-06-26T08:01:21.908Z,1812.00
2019-06-26T08:02:21.833Z,1732.00
2019-06-26T08:03:21.842Z,1880.00
2019-06-26T08:04:21.819Z,1872.00
2019-06-26T08:05:21.790Z,1848.00
2019-06-26T08:06:21.781Z,1804.00
2019-06-26T08:07:21.786Z,1844.00
2019-06-26T08:08:21.750Z,1848.00
2019-06-26T08:09:21.735Z,1804.00
2019-06-26T08:10:21.755Z,1864.00
2019-06-26T08:11:21.717Z,1832.00
2019-06-26T08:12:21.725Z,1828.00
2019-06-26T08:13:21.690Z,1832.00
2019-06-26T08:14:21.754Z,1828.00
2019-06-26T08:15:21.670Z,1864.00
2019-06-26T08:16:21.662Z,1872.00
2019-06-26T08:17:21.666Z,1876.00
2019-06-26T08:18:21.650Z,1896.00
2019-06-26T08:19:21.642Z,1928.00
2019-06-26T08:20:21.614Z,1876.00
2019-06-26T08:21:21.602Z,1888.00
2019-06-26T08:22:21.594Z,1884.00
2019-06-26T08:23:21.590Z,1900.00
2019-06-26T08:24:21.602Z,1952.00
2019-06-26T08:25:21.561Z,1800.00
2019-06-26T08:26:21.546Z,1924.00
2019-06-26T08:27:21.534Z,1932.00
2019-06-26T08:28:21.549Z,1956.00
2019-06-26T08:29:21.521Z,1944.00
2019-06-26T08:30:21.508Z,2060.00
2019-06-26T08:31:21.493Z,1964.00
2019-06-26T08:32:21.564Z,1960.00
2019-06-26T08:33:21.478Z,2044.00
2019-06-26T08:34:21.473Z,1996.00
2019-06-26T08:35:21.450Z,1980.00
2019-06-26T08:36:21.436Z,2028.00
2019-06-26T08:37:21.442Z,2036.00
2019-06-26T08:38:21.429Z,2012.00
2019-06-26T08:39:21.401Z,2044.00
2019-06-26T08:40:21.423Z,1996.00
2019-06-26T08:41:21.380Z,2080.00
2019-06-26T08:42:21.378Z,2056.00
2019-06-26T08:43:21.388Z,2100.00
2019-06-26T08:44:21.350Z,2100.00
2019-06-26T08:45:21.374Z,2108.00
2019-06-26T08:46:21.363Z,2096.00
2019-06-26T08:47:21.313Z,2072.00
2019-06-26T08:48:38.316Z,2044.00
2019-06-26T08:49:25.896Z,2112.00
2019-06-26T08:50:21.282Z,2100.00
2019-06-26T08:51:21.278Z,2140.00
2019-06-26T08:52:21.290Z,2188.00
2019-06-26T08:53:21.258Z,2092.00
2019-06-26T08:54:21.247Z,2256.00
2019-06-26T08:55:21.254Z,2200.00
2019-06-26T08:56:21.220Z,2400.00
2019-06-26T08:57:21.217Z,2292.00
2019-06-26T08:58:21.198Z,2304.00
2019-06-26T08:59:21.205Z,2328.00
2019-06-26T09:00:21.171Z,2320.00
2019-06-26T09:01:21.296Z,2348.00
2019-06-26T09:02:21.193Z,2352.00
2019-06-26T09:03:21.163Z,2340.00
2019-06-26T09:04:21.134Z,2300.00
2019-06-26T09:05:21.130Z,2380.00
2019-06-26T09:06:21.189Z,2456.00
2019-06-26T09:07:21.121Z,2432.00
2019-06-26T09:08:21.245Z,2428.00
2019-06-26T09:09:21.090Z,2368.00
2019-06-26T09:10:21.092Z,2440.00
2019-06-26T09:11:21.066Z,2456.00
2019-06-26T09:12:21.058Z,2372.00
2019-06-26T09:13:21.052Z,2508.00
2019-06-26T09:14:21.058Z,2528.00
2019-06-26T09:15:21.015Z,2616.00
2019-06-26T09:16:21.048Z,2500.00
2019-06-26T09:17:21.007Z,2580.00
2019-06-26T09:18:34.749Z,2536.00
2019-06-26T09:19:21.978Z,2520.00
2019-06-26T09:20:20.958Z,2620.00
2019-06-26T09:21:20.962Z,2536.00
2019-06-26T09:22:20.941Z,2644.00
2019-06-26T09:23:20.925Z,2660.00
2019-06-26T09:24:20.937Z,2692.00
2019-06-26T09:25:22.598Z,2700.00
2019-06-26T09:26:20.895Z,2696.00
2019-06-26T09:27:20.903Z,2728.00
2019-06-26T09:28:20.866Z,2716.00
2019-06-26T09:29:23.675Z,2728.00
2019-06-26T09:30:20.866Z,2748.00
2019-06-26T09:31:20.919Z,2772.00
2019-06-26T09:32:20.850Z,2764.00
2019-06-26T09:33:20.819Z,2608.00
2019-06-26T09:34:20.807Z,2788.00
2019-06-26T09:35:20.799Z,2768.00
2019-06-26T09:36:20.798Z,2792.00
2019-06-26T09:37:20.775Z,2800.00
2019-06-26T09:38:20.766Z,2804.00
2019-06-26T09:39:20.750Z,2816.00
2019-06-26T09:40:20.738Z,2852.00
2019-06-26T09:41:20.727Z,2876.00
2019-06-26T09:42:20.738Z,2872.00
2019-06-26T09:43:20.702Z,2800.00
2019-06-26T09:44:20.738Z,2836.00
2019-06-26T09:45:20.682Z,2924.00
2019-06-26T09:46:20.686Z,2984.00
2019-06-26T09:47:20.670Z,2956.00
2019-06-26T09:48:20.682Z,2968.00
2019-06-26T09:49:20.639Z,2880.00
2019-06-26T09:50:20.648Z,2928.00
2019-06-26T09:51:20.634Z,2892.00
2019-06-26T09:52:20.658Z,2928.00
2019-06-26T09:53:20.604Z,2944.00
2019-06-26T09:54:20.605Z,2928.00
2019-06-26T09:55:20.594Z,2968.00
2019-06-26T09:56:20.558Z,3028.00
2019-06-26T09:57:20.570Z,2940.00
2019-06-26T09:58:20.543Z,2892.00
2019-06-26T09:59:20.545Z,2720.00
2019-06-26T10:00:20.526Z,2980.00
2019-06-26T10:01:20.566Z,2972.00
2019-06-26T10:02:20.494Z,2968.00
2019-06-26T10:03:20.497Z,2980.00
2019-06-26T10:04:20.478Z,3024.00
2019-06-26T10:05:20.597Z,2944.00
2019-06-26T10:06:20.460Z,2852.00
2019-06-26T10:07:20.478Z,3028.00
2019-06-26T10:08:20.431Z,3036.00
2019-06-26T10:09:20.423Z,3036.00
2019-06-26T10:10:20.439Z,3004.00
2019-06-26T10:11:20.398Z,3100.00
2019-06-26T10:12:20.390Z,3052.00
2019-06-26T10:13:20.402Z,2988.00
2019-06-26T10:14:20.378Z,3036.00
2019-06-26T10:15:20.358Z,3108.00
2019-06-26T10:16:20.376Z,3108.00
2019-06-26T10:17:20.331Z,3108.00
2019-06-26T10:18:20.364Z,3088.00
2019-06-26T10:19:20.309Z,3120.00
2019-06-26T10:20:20.318Z,3124.00
2019-06-26T10:21:23.521Z,3112.00
2019-06-26T10:22:20.301Z,3200.00
2019-06-26T10:23:20.318Z,3040.00
2019-06-26T10:24:20.262Z,3000.00
2019-06-26T10:25:20.250Z,3012.00
2019-06-26T10:26:20.263Z,2996.00
2019-06-26T10:27:20.236Z,3004.00
2019-06-26T10:28:20.238Z,3180.00
2019-06-26T10:29:20.207Z,3088.00
2019-06-26T10:30:20.244Z,3028.00
2019-06-26T10:31:20.200Z,3024.00
2019-06-26T10:32:20.187Z,3040.00
2019-06-26T10:33:20.178Z,3108.00
2019-06-26T10:34:20.149Z,3180.00
2019-06-26T10:35:20.219Z,3172.00
2019-06-26T10:36:20.134Z,3180.00
2019-06-26T10:37:20.121Z,3260.00
2019-06-26T10:38:20.327Z,3200.00
2019-06-26T10:39:20.118Z,3160.00
2019-06-26T10:40:20.095Z,3304.00
2019-06-26T10:41:20.078Z,3344.00
2019-06-26T10:42:20.062Z,3260.00
2019-06-26T10:43:20.052Z,3172.00
2019-06-26T10:44:20.042Z,3248.00
2019-06-26T10:45:20.076Z,3272.00
2019-06-26T10:46:20.018Z,3172.00
2019-06-26T10:47:20.014Z,3244.00
2019-06-26T10:48:20.026Z,3232.00
2019-06-26T10:49:27.068Z,3240.00
2019-06-26T10:50:21.006Z,3272.00
2019-06-26T10:51:19.962Z,3344.00
2019-06-26T10:52:19.959Z,3236.00
2019-06-26T10:53:19.956Z,3256.00
2019-06-26T10:54:19.938Z,3172.00
2019-06-26T10:55:19.957Z,3204.00
2019-06-26T10:56:19.926Z,3168.00
2019-06-26T10:57:19.906Z,3264.00
2019-06-26T10:58:19.890Z,3260.00
2019-06-26T10:59:19.906Z,3312.00
2019-06-26T11:00:19.871Z,3176.00
2019-06-26T11:01:19.858Z,3284.00
2019-06-26T11:02:19.870Z,3196.00
2019-06-26T11:03:19.843Z,3288.00
2019-06-26T11:04:19.854Z,3344.00
2019-06-26T11:05:19.815Z,3336.00
2019-06-26T11:06:19.802Z,3388.00
2019-06-26T11:07:19.815Z,3396.00
2019-06-26T11:08:19.786Z,3464.00
2019-06-26T11:09:19.778Z,3476.00
2019-06-26T11:10:19.793Z,3464.00
2019-06-26T11:11:19.759Z,3492.00
2019-06-26T11:12:19.748Z,3492.00
2019-06-26T11:13:19.738Z,3372.00
2019-06-26T11:14:19.759Z,3456.00
2019-06-26T11:15:19.740Z,3664.00
2019-06-26T11:16:19.710Z,3668.00
2019-06-26T11:17:19.699Z,3636.00
2019-06-26T11:18:19.686Z,3632.00
2019-06-26T11:19:19.668Z,3600.00
2019-06-26T11:20:19.669Z,3720.00
2019-06-26T11:21:19.655Z,3624.00
2019-06-26T11:22:19.658Z,3676.00
2019-06-26T11:23:19.624Z,3716.00
2019-06-26T11:24:19.629Z,3720.00
2019-06-26T11:25:19.617Z,3596.00
2019-06-26T11:26:19.600Z,3648.00
2019-06-26T11:27:19.582Z,3796.00
2019-06-26T11:28:19.569Z,3832.00
2019-06-26T11:29:19.584Z,3780.00
2019-06-26T11:30:19.553Z,3776.00
2019-06-26T11:31:19.535Z,3888.00
2019-06-26T11:32:19.553Z,3748.00
2019-06-26T11:33:19.553Z,3752.00
2019-06-26T11:34:19.502Z,3820.00
2019-06-26T11:35:19.532Z,3628.00
2019-06-26T11:36:19.483Z,3876.00
2019-06-26T11:37:22.829Z,3740.00
2019-06-26T11:38:19.470Z,3680.00
2019-06-26T11:39:19.463Z,3680.00
2019-06-26T11:40:19.475Z,3688.00
2019-06-26T11:41:19.445Z,3688.00
2019-06-26T11:42:19.426Z,3728.00
2019-06-26T11:43:19.410Z,3684.00
2019-06-26T11:44:19.398Z,3792.00
2019-06-26T11:45:19.385Z,3640.00
2019-06-26T11:46:19.417Z,3644.00
2019-06-26T11:47:19.367Z,3820.00
2019-06-26T11:48:19.357Z,3872.00
2019-06-26T11:49:19.343Z,3816.00
2019-06-26T11:50:19.342Z,3824.00
2019-06-26T11:51:19.463Z,3664.00
2019-06-26T11:52:19.334Z,3932.00
2019-06-26T11:53:19.380Z,3832.00
2019-06-26T11:54:19.301Z,3836.00
2019-06-26T11:55:19.396Z,3616.00
2019-06-26T11:56:19.265Z,3848.00
2019-06-26T11:57:19.269Z,3760.00
2019-06-26T11:58:19.252Z,3844.00
2019-06-26T11:59:19.242Z,3948.00
2019-06-26T12:00:19.226Z,3916.00
2019-06-26T12:01:19.229Z,3908.00
2019-06-26T12:02:19.267Z,3984.00
2019-06-26T12:03:19.194Z,3588.00
2019-06-26T12:04:19.198Z,3872.00
2019-06-26T12:05:19.191Z,3984.00
2019-06-26T12:06:19.524Z,4008.00
2019-06-26T12:07:19.147Z,3764.00
2019-06-26T12:08:19.201Z,3884.00
2019-06-26T12:09:19.135Z,3932.00
2019-06-26T12:10:19.172Z,4036.00
2019-06-26T12:11:19.168Z,4072.00
2019-06-26T12:12:19.168Z,3904.00
2019-06-26T12:13:19.106Z,3960.00
2019-06-26T12:14:19.108Z,3940.00
2019-06-26T12:15:19.070Z,3824.00
2019-06-26T12:16:19.129Z,4112.00
2019-06-26T12:17:19.049Z,4104.00
2019-06-26T12:18:19.053Z,4380.00
2019-06-26T12:19:22.510Z,4068.00
2019-06-26T12:20:19.970Z,3872.00
2019-06-26T12:21:19.005Z,3944.00
2019-06-26T12:22:18.989Z,3896.00
2019-06-26T12:23:18.982Z,3712.00
2019-06-26T12:24:18.978Z,3788.00
2019-06-26T12:25:18.953Z,3928.00
2019-06-26T12:26:18.944Z,3860.00
2019-06-26T12:27:18.937Z,4152.00
2019-06-26T12:28:18.951Z,4040.00